sensor_id;sensor_type;location;lat;lon;timestamp;temperature;humidity
1936;DHT22;969;49.892;10.896;2023-06-10T00:02:21;25.50;52.10
1936;DHT22;969;49.892;10.896;2023-06-10T00:04:47;25.50;52.10
1936;DHT22;969;49.892;10.896;2023-06-10T00:07:13;25.50;52.00
1936;DHT22;969;49.892;10.896;2023-06-10T00:09:38;25.50;52.00
1936;DHT22;969;49.892;10.896;2023-06-10T00:12:05;25.50;52.10
1936;DHT22;969;49.892;10.896;2023-06-10T00:14:32;25.50;52.10
1936;DHT22;969;49.892;10.896;2023-06-10T00:16:58;25.50;52.00
1936;DHT22;969;49.892;10.896;2023-06-10T00:19:24;25.50;52.00
1936;DHT22;969;49.892;10.896;2023-06-10T00:21:51;25.50;52.60
1936;DHT22;969;49.892;10.896;2023-06-10T00:24:18;25.50;52.00
1936;DHT22;969;49.892;10.896;2023-06-10T00:26:44;25.50;52.00
1936;DHT22;969;49.892;10.896;2023-06-10T00:29:10;25.50;52.10
1936;DHT22;969;49.892;10.896;2023-06-10T00:31:37;25.50;52.00
1936;DHT22;969;49.892;10.896;2023-06-10T00:34:02;25.50;52.10
1936;DHT22;969;49.892;10.896;2023-06-10T00:36:28;25.50;52.10
1936;DHT22;969;49.892;10.896;2023-06-10T00:38:54;25.50;52.10
1936;DHT22;969;49.892;10.896;2023-06-10T00:41:20;25.40;52.10
1936;DHT22;969;49.892;10.896;2023-06-10T00:43:45;25.50;52.10
1936;DHT22;969;49.892;10.896;2023-06-10T00:46:12;25.50;52.10
1936;DHT22;969;49.892;10.896;2023-06-10T00:48:40;25.50;52.10
1936;DHT22;969;49.892;10.896;2023-06-10T00:51:06;25.40;52.10
1936;DHT22;969;49.892;10.896;2023-06-10T00:53:35;25.50;52.20
1936;DHT22;969;49.892;10.896;2023-06-10T00:56:02;25.40;52.10
1936;DHT22;969;49.892;10.896;2023-06-10T00:58:28;25.40;52.10
1936;DHT22;969;49.892;10.896;2023-06-10T01:00:54;25.40;52.10
1936;DHT22;969;49.892;10.896;2023-06-10T01:03:19;25.40;52.20
1936;DHT22;969;49.892;10.896;2023-06-10T01:09:02;25.40;52.10
1936;DHT22;969;49.892;10.896;2023-06-10T01:11:44;25.40;52.10
1936;DHT22;969;49.892;10.896;2023-06-10T01:14:12;25.40;52.20
1936;DHT22;969;49.892;10.896;2023-06-10T01:16:39;25.40;52.20
1936;DHT22;969;49.892;10.896;2023-06-10T01:19:06;25.40;52.20
1936;DHT22;969;49.892;10.896;2023-06-10T01:21:33;25.40;52.20
1936;DHT22;969;49.892;10.896;2023-06-10T01:23:58;25.40;52.20
1936;DHT22;969;49.892;10.896;2023-06-10T01:26:29;25.40;52.20
1936;DHT22;969;49.892;10.896;2023-06-10T01:29:17;25.40;52.20
1936;DHT22;969;49.892;10.896;2023-06-10T01:31:51;25.50;52.20
1936;DHT22;969;49.892;10.896;2023-06-10T01:34:21;25.40;52.20
1936;DHT22;969;49.892;10.896;2023-06-10T01:36:49;25.40;52.20
1936;DHT22;969;49.892;10.896;2023-06-10T01:39:17;25.40;52.20
1936;DHT22;969;49.892;10.896;2023-06-10T01:41:43;25.40;52.20
1936;DHT22;969;49.892;10.896;2023-06-10T01:44:10;25.40;52.20
1936;DHT22;969;49.892;10.896;2023-06-10T01:46:36;25.40;52.20
1936;DHT22;969;49.892;10.896;2023-06-10T01:49:01;25.40;52.20
1936;DHT22;969;49.892;10.896;2023-06-10T01:51:27;25.50;52.30
1936;DHT22;969;49.892;10.896;2023-06-10T01:53:52;25.40;52.20
1936;DHT22;969;49.892;10.896;2023-06-10T01:56:18;25.50;52.30
1936;DHT22;969;49.892;10.896;2023-06-10T01:58:45;25.40;52.20
1936;DHT22;969;49.892;10.896;2023-06-10T02:01:11;25.50;52.20
1936;DHT22;969;49.892;10.896;2023-06-10T02:03:37;25.40;52.20
1936;DHT22;969;49.892;10.896;2023-06-10T02:06:03;25.40;52.20
1936;DHT22;969;49.892;10.896;2023-06-10T02:08:29;25.40;52.20
1936;DHT22;969;49.892;10.896;2023-06-10T02:10:54;25.50;52.20
1936;DHT22;969;49.892;10.896;2023-06-10T02:13:20;25.40;52.20
1936;DHT22;969;49.892;10.896;2023-06-10T02:15:45;25.40;52.20
1936;DHT22;969;49.892;10.896;2023-06-10T02:18:11;25.40;52.20
1936;DHT22;969;49.892;10.896;2023-06-10T02:20:37;25.50;52.20
1936;DHT22;969;49.892;10.896;2023-06-10T02:23:03;25.50;52.20
1936;DHT22;969;49.892;10.896;2023-06-10T02:25:29;25.40;52.20
1936;DHT22;969;49.892;10.896;2023-06-10T02:27:54;25.50;52.30
1936;DHT22;969;49.892;10.896;2023-06-10T02:30:20;25.40;52.70
1936;DHT22;969;49.892;10.896;2023-06-10T02:32:46;25.40;52.20
1936;DHT22;969;49.892;10.896;2023-06-10T02:35:14;25.50;52.30
1936;DHT22;969;49.892;10.896;2023-06-10T02:37:40;25.40;52.20
1936;DHT22;969;49.892;10.896;2023-06-10T02:40:06;25.40;52.30
1936;DHT22;969;49.892;10.896;2023-06-10T02:42:32;25.40;52.20
1936;DHT22;969;49.892;10.896;2023-06-10T02:44:58;25.40;52.20
1936;DHT22;969;49.892;10.896;2023-06-10T02:47:24;25.40;52.20
1936;DHT22;969;49.892;10.896;2023-06-10T02:49:49;25.40;52.20
1936;DHT22;969;49.892;10.896;2023-06-10T02:52:15;25.40;52.20
1936;DHT22;969;49.892;10.896;2023-06-10T02:54:41;25.50;52.30
1936;DHT22;969;49.892;10.896;2023-06-10T02:57:06;25.40;52.20
1936;DHT22;969;49.892;10.896;2023-06-10T02:59:33;25.40;52.20
1936;DHT22;969;49.892;10.896;2023-06-10T03:01:58;25.50;52.20
1936;DHT22;969;49.892;10.896;2023-06-10T03:04:26;25.40;52.20
1936;DHT22;969;49.892;10.896;2023-06-10T03:06:54;25.40;52.20
1936;DHT22;969;49.892;10.896;2023-06-10T03:09:20;25.50;52.30
1936;DHT22;969;49.892;10.896;2023-06-10T03:11:46;25.50;52.30
1936;DHT22;969;49.892;10.896;2023-06-10T03:14:11;25.40;52.20
1936;DHT22;969;49.892;10.896;2023-06-10T03:16:37;25.40;52.20
1936;DHT22;969;49.892;10.896;2023-06-10T03:19:06;25.40;52.20
1936;DHT22;969;49.892;10.896;2023-06-10T03:21:31;25.40;52.20
1936;DHT22;969;49.892;10.896;2023-06-10T03:23:57;25.40;52.20
1936;DHT22;969;49.892;10.896;2023-06-10T03:26:22;25.40;52.20
1936;DHT22;969;49.892;10.896;2023-06-10T03:28:48;25.40;52.10
1936;DHT22;969;49.892;10.896;2023-06-10T03:31:14;25.40;52.10
1936;DHT22;969;49.892;10.896;2023-06-10T03:33:42;25.40;52.10
1936;DHT22;969;49.892;10.896;2023-06-10T03:36:08;25.40;52.10
1936;DHT22;969;49.892;10.896;2023-06-10T03:38:33;25.40;52.10
1936;DHT22;969;49.892;10.896;2023-06-10T03:40:59;25.40;52.10
1936;DHT22;969;49.892;10.896;2023-06-10T03:43:24;25.40;52.10
1936;DHT22;969;49.892;10.896;2023-06-10T03:45:50;25.40;52.10
1936;DHT22;969;49.892;10.896;2023-06-10T03:48:17;25.40;52.70
1936;DHT22;969;49.892;10.896;2023-06-10T03:50:42;25.40;52.10
1936;DHT22;969;49.892;10.896;2023-06-10T03:53:08;25.40;52.10
1936;DHT22;969;49.892;10.896;2023-06-10T03:55:33;25.40;52.10
1936;DHT22;969;49.892;10.896;2023-06-10T03:57:59;25.40;52.10
1936;DHT22;969;49.892;10.896;2023-06-10T04:00:24;25.40;52.20
1936;DHT22;969;49.892;10.896;2023-06-10T04:02:50;25.40;52.20
1936;DHT22;969;49.892;10.896;2023-06-10T04:05:18;25.40;52.20
1936;DHT22;969;49.892;10.896;2023-06-10T04:07:45;25.40;52.20
1936;DHT22;969;49.892;10.896;2023-06-10T04:10:14;25.40;52.30
1936;DHT22;969;49.892;10.896;2023-06-10T04:12:40;25.40;52.20
1936;DHT22;969;49.892;10.896;2023-06-10T04:15:07;25.40;52.20
1936;DHT22;969;49.892;10.896;2023-06-10T04:17:33;25.40;52.20
1936;DHT22;969;49.892;10.896;2023-06-10T04:19:58;25.40;52.30
1936;DHT22;969;49.892;10.896;2023-06-10T04:22:24;25.40;52.30
1936;DHT22;969;49.892;10.896;2023-06-10T04:24:50;25.40;52.30
1936;DHT22;969;49.892;10.896;2023-06-10T04:27:15;25.40;52.30
1936;DHT22;969;49.892;10.896;2023-06-10T04:29:41;25.40;52.30
1936;DHT22;969;49.892;10.896;2023-06-10T04:32:07;25.40;52.30
1936;DHT22;969;49.892;10.896;2023-06-10T04:34:33;25.40;52.30
1936;DHT22;969;49.892;10.896;2023-06-10T04:36:59;25.40;52.40
1936;DHT22;969;49.892;10.896;2023-06-10T04:39:25;25.40;52.30
1936;DHT22;969;49.892;10.896;2023-06-10T04:41:51;25.40;52.30
1936;DHT22;969;49.892;10.896;2023-06-10T04:44:17;25.40;52.30
1936;DHT22;969;49.892;10.896;2023-06-10T04:46:44;25.50;52.40
1936;DHT22;969;49.892;10.896;2023-06-10T04:49:09;25.50;52.30
1936;DHT22;969;49.892;10.896;2023-06-10T04:51:35;25.50;52.30
1936;DHT22;969;49.892;10.896;2023-06-10T04:54:01;25.50;52.30
1936;DHT22;969;49.892;10.896;2023-06-10T04:56:30;25.50;52.30
1936;DHT22;969;49.892;10.896;2023-06-10T04:58:57;25.50;52.30
1936;DHT22;969;49.892;10.896;2023-06-10T05:01:23;25.50;52.30
1936;DHT22;969;49.892;10.896;2023-06-10T05:03:48;25.50;52.30
1936;DHT22;969;49.892;10.896;2023-06-10T05:06:14;25.50;52.30
1936;DHT22;969;49.892;10.896;2023-06-10T05:08:40;25.50;52.40
1936;DHT22;969;49.892;10.896;2023-06-10T05:11:05;25.50;52.40
1936;DHT22;969;49.892;10.896;2023-06-10T05:13:31;25.50;52.60
1936;DHT22;969;49.892;10.896;2023-06-10T05:15:57;25.50;52.60
1936;DHT22;969;49.892;10.896;2023-06-10T05:18:23;25.50;52.60
1936;DHT22;969;49.892;10.896;2023-06-10T05:20:48;25.50;52.50
1936;DHT22;969;49.892;10.896;2023-06-10T05:23:14;25.50;52.50
1936;DHT22;969;49.892;10.896;2023-06-10T05:25:40;25.50;52.60
1936;DHT22;969;49.892;10.896;2023-06-10T05:28:07;25.50;52.60
1936;DHT22;969;49.892;10.896;2023-06-10T05:30:35;25.50;52.50
1936;DHT22;969;49.892;10.896;2023-06-10T05:33:01;25.50;52.40
1936;DHT22;969;49.892;10.896;2023-06-10T05:35:26;25.50;52.40
1936;DHT22;969;49.892;10.896;2023-06-10T05:37:52;25.50;52.40
1936;DHT22;969;49.892;10.896;2023-06-10T05:40:17;25.50;52.40
1936;DHT22;969;49.892;10.896;2023-06-10T05:42:43;25.50;52.40
1936;DHT22;969;49.892;10.896;2023-06-10T05:45:09;25.50;52.40
1936;DHT22;969;49.892;10.896;2023-06-10T05:47:35;25.50;52.40
1936;DHT22;969;49.892;10.896;2023-06-10T05:50:00;25.50;52.70
1936;DHT22;969;49.892;10.896;2023-06-10T05:52:26;25.50;52.50
1936;DHT22;969;49.892;10.896;2023-06-10T05:54:52;25.50;52.50
1936;DHT22;969;49.892;10.896;2023-06-10T05:57:17;25.50;52.60
1936;DHT22;969;49.892;10.896;2023-06-10T05:59:43;25.50;52.50
1936;DHT22;969;49.892;10.896;2023-06-10T06:02:08;25.50;52.50
1936;DHT22;969;49.892;10.896;2023-06-10T06:04:34;25.50;52.50
1936;DHT22;969;49.892;10.896;2023-06-10T06:07:00;25.50;52.50
1936;DHT22;969;49.892;10.896;2023-06-10T06:09:25;25.50;52.50
1936;DHT22;969;49.892;10.896;2023-06-10T06:11:51;25.60;52.50
1936;DHT22;969;49.892;10.896;2023-06-10T06:14:17;25.60;52.50
1936;DHT22;969;49.892;10.896;2023-06-10T06:16:42;25.50;52.50
1936;DHT22;969;49.892;10.896;2023-06-10T06:19:08;25.50;52.50
1936;DHT22;969;49.892;10.896;2023-06-10T06:21:34;25.50;53.10
1936;DHT22;969;49.892;10.896;2023-06-10T06:24:00;25.60;52.50
1936;DHT22;969;49.892;10.896;2023-06-10T06:26:26;25.50;52.50
1936;DHT22;969;49.892;10.896;2023-06-10T06:28:52;25.50;52.40
1936;DHT22;969;49.892;10.896;2023-06-10T06:31:17;25.60;52.50
1936;DHT22;969;49.892;10.896;2023-06-10T06:33:43;25.50;52.40
1936;DHT22;969;49.892;10.896;2023-06-10T06:36:08;25.60;52.50
1936;DHT22;969;49.892;10.896;2023-06-10T06:38:34;25.50;52.40
1936;DHT22;969;49.892;10.896;2023-06-10T06:41:00;25.60;52.50
1936;DHT22;969;49.892;10.896;2023-06-10T06:43:29;25.60;52.50
1936;DHT22;969;49.892;10.896;2023-06-10T06:45:56;25.60;52.50
1936;DHT22;969;49.892;10.896;2023-06-10T06:48:22;25.60;52.40
1936;DHT22;969;49.892;10.896;2023-06-10T06:50:47;25.60;52.40
1936;DHT22;969;49.892;10.896;2023-06-10T06:53:13;25.60;52.50
1936;DHT22;969;49.892;10.896;2023-06-10T06:55:38;25.60;52.50
1936;DHT22;969;49.892;10.896;2023-06-10T06:58:04;25.60;52.50
1936;DHT22;969;49.892;10.896;2023-06-10T07:00:30;25.60;52.50
1936;DHT22;969;49.892;10.896;2023-06-10T07:02:56;25.60;52.50
1936;DHT22;969;49.892;10.896;2023-06-10T07:05:23;25.50;52.40
1936;DHT22;969;49.892;10.896;2023-06-10T07:07:48;25.50;52.40
1936;DHT22;969;49.892;10.896;2023-06-10T07:10:21;25.50;52.40
1936;DHT22;969;49.892;10.896;2023-06-10T07:12:47;25.60;52.50
1936;DHT22;969;49.892;10.896;2023-06-10T07:15:13;25.60;52.50
1936;DHT22;969;49.892;10.896;2023-06-10T07:17:39;25.60;52.50
1936;DHT22;969;49.892;10.896;2023-06-10T07:20:05;25.50;52.40
1936;DHT22;969;49.892;10.896;2023-06-10T07:22:30;25.50;52.40
1936;DHT22;969;49.892;10.896;2023-06-10T07:24:57;25.60;52.50
1936;DHT22;969;49.892;10.896;2023-06-10T07:27:22;25.60;52.50
1936;DHT22;969;49.892;10.896;2023-06-10T07:29:48;25.50;52.50
1936;DHT22;969;49.892;10.896;2023-06-10T07:32:13;25.50;52.40
1936;DHT22;969;49.892;10.896;2023-06-10T07:34:39;25.60;52.50
1936;DHT22;969;49.892;10.896;2023-06-10T07:37:05;25.60;52.50
1936;DHT22;969;49.892;10.896;2023-06-10T07:39:31;25.60;52.50
1936;DHT22;969;49.892;10.896;2023-06-10T07:41:56;25.50;52.40
1936;DHT22;969;49.892;10.896;2023-06-10T07:44:23;25.50;52.40
1936;DHT22;969;49.892;10.896;2023-06-10T07:46:48;25.60;52.50
1936;DHT22;969;49.892;10.896;2023-06-10T07:49:14;25.60;52.50
1936;DHT22;969;49.892;10.896;2023-06-10T07:51:40;25.60;52.50
1936;DHT22;969;49.892;10.896;2023-06-10T07:54:05;25.60;52.50
1936;DHT22;969;49.892;10.896;2023-06-10T07:56:31;25.60;52.50
1936;DHT22;969;49.892;10.896;2023-06-10T07:58:57;25.60;52.50
1936;DHT22;969;49.892;10.896;2023-06-10T08:01:23;25.60;52.50
1936;DHT22;969;49.892;10.896;2023-06-10T08:03:50;25.60;52.50
1936;DHT22;969;49.892;10.896;2023-06-10T08:06:15;25.60;52.50
1936;DHT22;969;49.892;10.896;2023-06-10T08:08:42;25.60;52.50
1936;DHT22;969;49.892;10.896;2023-06-10T08:11:12;25.60;52.50
1936;DHT22;969;49.892;10.896;2023-06-10T08:13:37;25.60;52.50
1936;DHT22;969;49.892;10.896;2023-06-10T08:16:04;25.60;52.50
1936;DHT22;969;49.892;10.896;2023-06-10T08:18:29;25.60;52.50
1936;DHT22;969;49.892;10.896;2023-06-10T08:20:55;25.60;52.60
1936;DHT22;969;49.892;10.896;2023-06-10T08:23:21;25.60;52.60
1936;DHT22;969;49.892;10.896;2023-06-10T08:25:46;25.60;52.60
1936;DHT22;969;49.892;10.896;2023-06-10T08:28:12;25.60;52.60
1936;DHT22;969;49.892;10.896;2023-06-10T08:30:38;25.60;52.60
1936;DHT22;969;49.892;10.896;2023-06-10T08:33:03;25.60;52.60
1936;DHT22;969;49.892;10.896;2023-06-10T08:35:29;25.60;52.60
1936;DHT22;969;49.892;10.896;2023-06-10T08:37:55;25.60;52.60
1936;DHT22;969;49.892;10.896;2023-06-10T08:40:21;25.50;52.60
1936;DHT22;969;49.892;10.896;2023-06-10T08:42:58;25.60;52.60
1936;DHT22;969;49.892;10.896;2023-06-10T08:45:29;25.60;52.60
1936;DHT22;969;49.892;10.896;2023-06-10T08:47:57;25.60;52.60
1936;DHT22;969;49.892;10.896;2023-06-10T08:50:23;25.50;52.50
1936;DHT22;969;49.892;10.896;2023-06-10T08:52:51;25.60;52.60
1936;DHT22;969;49.892;10.896;2023-06-10T08:55:26;25.60;52.60
1936;DHT22;969;49.892;10.896;2023-06-10T08:57:53;25.60;52.60
1936;DHT22;969;49.892;10.896;2023-06-10T09:00:19;25.60;52.60
1936;DHT22;969;49.892;10.896;2023-06-10T09:02:45;25.50;52.50
1936;DHT22;969;49.892;10.896;2023-06-10T09:05:12;25.60;52.60
1936;DHT22;969;49.892;10.896;2023-06-10T09:07:39;25.50;52.50
1936;DHT22;969;49.892;10.896;2023-06-10T09:10:05;25.60;52.50
1936;DHT22;969;49.892;10.896;2023-06-10T09:12:33;25.60;52.50
1936;DHT22;969;49.892;10.896;2023-06-10T09:14:59;25.60;52.50
1936;DHT22;969;49.892;10.896;2023-06-10T09:17:26;25.60;52.60
1936;DHT22;969;49.892;10.896;2023-06-10T09:19:52;25.60;52.50
1936;DHT22;969;49.892;10.896;2023-06-10T09:22:22;25.60;52.50
1936;DHT22;969;49.892;10.896;2023-06-10T09:24:48;25.60;52.50
1936;DHT22;969;49.892;10.896;2023-06-10T09:27:14;25.60;52.50
1936;DHT22;969;49.892;10.896;2023-06-10T09:29:48;25.60;52.50
1936;DHT22;969;49.892;10.896;2023-06-10T09:32:18;25.60;52.50
1936;DHT22;969;49.892;10.896;2023-06-10T09:34:44;25.60;52.50
1936;DHT22;969;49.892;10.896;2023-06-10T09:37:09;25.60;52.50
1936;DHT22;969;49.892;10.896;2023-06-10T09:39:37;25.60;52.50
1936;DHT22;969;49.892;10.896;2023-06-10T09:42:18;25.60;52.50
1936;DHT22;969;49.892;10.896;2023-06-10T09:44:51;25.60;52.50
1936;DHT22;969;49.892;10.896;2023-06-10T09:47:20;25.60;52.50
1936;DHT22;969;49.892;10.896;2023-06-10T09:49:46;25.60;52.50
1936;DHT22;969;49.892;10.896;2023-06-10T09:52:12;25.60;52.60
1936;DHT22;969;49.892;10.896;2023-06-10T09:54:38;25.60;52.50
1936;DHT22;969;49.892;10.896;2023-06-10T09:57:07;25.60;52.50
1936;DHT22;969;49.892;10.896;2023-06-10T09:59:33;25.60;52.50
1936;DHT22;969;49.892;10.896;2023-06-10T10:02:00;25.60;52.50
1936;DHT22;969;49.892;10.896;2023-06-10T10:04:26;25.60;52.60
1936;DHT22;969;49.892;10.896;2023-06-10T10:06:52;25.60;52.70
1936;DHT22;969;49.892;10.896;2023-06-10T10:09:18;25.50;52.50
1936;DHT22;969;49.892;10.896;2023-06-10T10:11:44;25.60;52.60
1936;DHT22;969;49.892;10.896;2023-06-10T10:14:11;25.60;52.60
1936;DHT22;969;49.892;10.896;2023-06-10T10:16:41;25.60;53.10
1936;DHT22;969;49.892;10.896;2023-06-10T10:19:24;25.50;52.50
1936;DHT22;969;49.892;10.896;2023-06-10T10:21:54;25.50;52.50
1936;DHT22;969;49.892;10.896;2023-06-10T10:24:26;25.50;52.50
1936;DHT22;969;49.892;10.896;2023-06-10T10:26:55;25.50;52.50
1936;DHT22;969;49.892;10.896;2023-06-10T10:29:33;25.50;52.60
1936;DHT22;969;49.892;10.896;2023-06-10T10:32:01;25.60;52.60
1936;DHT22;969;49.892;10.896;2023-06-10T10:34:37;25.60;52.60
1936;DHT22;969;49.892;10.896;2023-06-10T10:37:05;25.50;52.50
1936;DHT22;969;49.892;10.896;2023-06-10T10:39:33;25.50;52.50
1936;DHT22;969;49.892;10.896;2023-06-10T10:41:59;25.50;52.50
1936;DHT22;969;49.892;10.896;2023-06-10T10:44:26;25.50;52.50
1936;DHT22;969;49.892;10.896;2023-06-10T10:46:53;25.60;52.60
1936;DHT22;969;49.892;10.896;2023-06-10T10:49:20;25.60;52.50
1936;DHT22;969;49.892;10.896;2023-06-10T10:52:01;25.60;52.50
1936;DHT22;969;49.892;10.896;2023-06-10T10:54:34;25.60;52.50
1936;DHT22;969;49.892;10.896;2023-06-10T10:57:28;25.60;52.50
1936;DHT22;969;49.892;10.896;2023-06-10T10:59:58;25.60;52.50
1936;DHT22;969;49.892;10.896;2023-06-10T11:02:42;25.60;52.50
1936;DHT22;969;49.892;10.896;2023-06-10T11:05:18;25.60;53.10
1936;DHT22;969;49.892;10.896;2023-06-10T11:07:55;25.60;52.50
1936;DHT22;969;49.892;10.896;2023-06-10T11:10:37;25.60;52.50
1936;DHT22;969;49.892;10.896;2023-06-10T11:13:13;25.60;52.50
1936;DHT22;969;49.892;10.896;2023-06-10T11:15:44;25.60;52.50
1936;DHT22;969;49.892;10.896;2023-06-10T11:18:14;25.60;52.60
1936;DHT22;969;49.892;10.896;2023-06-10T11:28:40;25.60;52.60
1936;DHT22;969;49.892;10.896;2023-06-10T11:31:06;25.60;52.60
1936;DHT22;969;49.892;10.896;2023-06-10T11:33:32;25.60;52.60
1936;DHT22;969;49.892;10.896;2023-06-10T11:35:58;25.60;52.60
1936;DHT22;969;49.892;10.896;2023-06-10T11:38:24;25.60;52.60
1936;DHT22;969;49.892;10.896;2023-06-10T11:40:53;25.60;52.60
1936;DHT22;969;49.892;10.896;2023-06-10T11:43:19;25.60;52.60
1936;DHT22;969;49.892;10.896;2023-06-10T11:45:45;25.60;52.60
1936;DHT22;969;49.892;10.896;2023-06-10T11:48:13;25.60;52.70
1936;DHT22;969;49.892;10.896;2023-06-10T11:50:39;25.60;52.60
1936;DHT22;969;49.892;10.896;2023-06-10T11:53:08;25.60;52.60
1936;DHT22;969;49.892;10.896;2023-06-10T11:55:44;25.60;52.60
1936;DHT22;969;49.892;10.896;2023-06-10T11:58:18;25.60;52.60
1936;DHT22;969;49.892;10.896;2023-06-10T12:00:52;25.60;52.60
1936;DHT22;969;49.892;10.896;2023-06-10T12:03:24;25.60;52.60
1936;DHT22;969;49.892;10.896;2023-06-10T12:06:04;25.60;52.60
1936;DHT22;969;49.892;10.896;2023-06-10T12:08:30;25.60;52.70
1936;DHT22;969;49.892;10.896;2023-06-10T12:10:56;25.60;52.60
1936;DHT22;969;49.892;10.896;2023-06-10T12:13:23;25.60;52.60
1936;DHT22;969;49.892;10.896;2023-06-10T12:15:51;25.60;52.60
1936;DHT22;969;49.892;10.896;2023-06-10T12:18:21;25.60;52.60
1936;DHT22;969;49.892;10.896;2023-06-10T12:20:47;25.60;52.60
1936;DHT22;969;49.892;10.896;2023-06-10T12:23:14;25.60;52.60
1936;DHT22;969;49.892;10.896;2023-06-10T12:25:52;25.60;53.20
1936;DHT22;969;49.892;10.896;2023-06-10T12:28:22;25.60;52.60
1936;DHT22;969;49.892;10.896;2023-06-10T12:30:48;25.60;52.60
1936;DHT22;969;49.892;10.896;2023-06-10T12:33:20;25.60;52.60
1936;DHT22;969;49.892;10.896;2023-06-10T12:35:51;25.60;52.60
1936;DHT22;969;49.892;10.896;2023-06-10T12:38:26;25.60;52.60
1936;DHT22;969;49.892;10.896;2023-06-10T12:41:01;25.60;52.60
1936;DHT22;969;49.892;10.896;2023-06-10T12:43:27;25.60;52.60
1936;DHT22;969;49.892;10.896;2023-06-10T12:45:53;25.60;52.60
1936;DHT22;969;49.892;10.896;2023-06-10T12:48:21;25.60;52.70
1936;DHT22;969;49.892;10.896;2023-06-10T12:50:57;25.60;52.60
1936;DHT22;969;49.892;10.896;2023-06-10T12:53:24;25.60;52.70
1936;DHT22;969;49.892;10.896;2023-06-10T12:55:52;25.60;52.70
1936;DHT22;969;49.892;10.896;2023-06-10T12:58:19;25.60;52.60
1936;DHT22;969;49.892;10.896;2023-06-10T13:00:45;25.60;52.60
1936;DHT22;969;49.892;10.896;2023-06-10T13:03:11;25.60;52.60
1936;DHT22;969;49.892;10.896;2023-06-10T13:05:37;25.60;52.60
1936;DHT22;969;49.892;10.896;2023-06-10T13:08:05;25.60;52.60
1936;DHT22;969;49.892;10.896;2023-06-10T13:10:32;25.60;52.60
1936;DHT22;969;49.892;10.896;2023-06-10T13:12:59;25.60;52.60
1936;DHT22;969;49.892;10.896;2023-06-10T13:15:25;25.60;52.70
1936;DHT22;969;49.892;10.896;2023-06-10T13:17:52;25.60;52.70
1936;DHT22;969;49.892;10.896;2023-06-10T13:20:18;25.60;52.70
1936;DHT22;969;49.892;10.896;2023-06-10T13:22:44;25.60;52.70
1936;DHT22;969;49.892;10.896;2023-06-10T13:25:10;25.60;52.70
1936;DHT22;969;49.892;10.896;2023-06-10T13:27:36;25.60;52.70
1936;DHT22;969;49.892;10.896;2023-06-10T13:30:06;25.60;52.70
1936;DHT22;969;49.892;10.896;2023-06-10T13:32:32;25.60;52.70
1936;DHT22;969;49.892;10.896;2023-06-10T13:34:58;25.60;52.70
1936;DHT22;969;49.892;10.896;2023-06-10T13:37:23;25.60;52.70
1936;DHT22;969;49.892;10.896;2023-06-10T13:39:49;25.60;52.70
1936;DHT22;969;49.892;10.896;2023-06-10T13:42:20;25.60;52.70
1936;DHT22;969;49.892;10.896;2023-06-10T13:44:49;25.60;52.70
1936;DHT22;969;49.892;10.896;2023-06-10T13:47:14;25.60;52.70
1936;DHT22;969;49.892;10.896;2023-06-10T13:49:40;25.60;52.70
1936;DHT22;969;49.892;10.896;2023-06-10T13:52:07;25.60;52.70
1936;DHT22;969;49.892;10.896;2023-06-10T13:54:33;25.60;52.70
1936;DHT22;969;49.892;10.896;2023-06-10T13:56:59;25.60;52.70
1936;DHT22;969;49.892;10.896;2023-06-10T13:59:25;25.60;52.70
1936;DHT22;969;49.892;10.896;2023-06-10T14:01:51;25.60;52.70
1936;DHT22;969;49.892;10.896;2023-06-10T14:04:16;25.60;52.70
1936;DHT22;969;49.892;10.896;2023-06-10T14:06:42;25.60;52.70
1936;DHT22;969;49.892;10.896;2023-06-10T14:09:08;25.60;52.70
1936;DHT22;969;49.892;10.896;2023-06-10T14:11:33;25.60;52.70
1936;DHT22;969;49.892;10.896;2023-06-10T14:13:59;25.60;52.70
1936;DHT22;969;49.892;10.896;2023-06-10T14:16:26;25.60;52.80
1936;DHT22;969;49.892;10.896;2023-06-10T14:18:52;25.60;52.80
1936;DHT22;969;49.892;10.896;2023-06-10T14:21:17;25.60;52.70
1936;DHT22;969;49.892;10.896;2023-06-10T14:23:43;25.60;52.70
1936;DHT22;969;49.892;10.896;2023-06-10T14:26:09;25.60;52.70
1936;DHT22;969;49.892;10.896;2023-06-10T14:28:35;25.60;52.70
1936;DHT22;969;49.892;10.896;2023-06-10T14:31:01;25.60;52.70
1936;DHT22;969;49.892;10.896;2023-06-10T14:33:26;25.60;52.70
1936;DHT22;969;49.892;10.896;2023-06-10T14:35:52;25.60;52.70
1936;DHT22;969;49.892;10.896;2023-06-10T14:38:17;25.60;52.70
1936;DHT22;969;49.892;10.896;2023-06-10T14:40:43;25.60;52.70
1936;DHT22;969;49.892;10.896;2023-06-10T14:43:09;25.60;52.70
1936;DHT22;969;49.892;10.896;2023-06-10T14:45:39;25.60;52.70
1936;DHT22;969;49.892;10.896;2023-06-10T14:48:06;25.60;52.70
1936;DHT22;969;49.892;10.896;2023-06-10T14:50:34;25.60;52.70
1936;DHT22;969;49.892;10.896;2023-06-10T14:53:00;25.60;52.70
1936;DHT22;969;49.892;10.896;2023-06-10T14:55:25;25.60;52.70
1936;DHT22;969;49.892;10.896;2023-06-10T14:57:51;25.60;52.80
1936;DHT22;969;49.892;10.896;2023-06-10T15:00:17;25.60;52.70
1936;DHT22;969;49.892;10.896;2023-06-10T15:02:46;25.60;52.70
1936;DHT22;969;49.892;10.896;2023-06-10T15:05:15;25.60;52.80
1936;DHT22;969;49.892;10.896;2023-06-10T15:07:41;25.60;52.80
1936;DHT22;969;49.892;10.896;2023-06-10T15:10:07;25.60;52.70
1936;DHT22;969;49.892;10.896;2023-06-10T15:12:33;25.60;52.70
1936;DHT22;969;49.892;10.896;2023-06-10T15:14:59;25.60;52.70
1936;DHT22;969;49.892;10.896;2023-06-10T15:17:24;25.60;52.70
1936;DHT22;969;49.892;10.896;2023-06-10T15:19:50;25.60;52.70
1936;DHT22;969;49.892;10.896;2023-06-10T15:22:16;25.60;52.70
1936;DHT22;969;49.892;10.896;2023-06-10T15:24:42;25.60;52.80
1936;DHT22;969;49.892;10.896;2023-06-10T15:27:08;25.60;52.70
1936;DHT22;969;49.892;10.896;2023-06-10T15:29:33;25.60;52.80
1936;DHT22;969;49.892;10.896;2023-06-10T15:31:59;25.60;52.80
1936;DHT22;969;49.892;10.896;2023-06-10T15:34:24;25.60;52.80
1936;DHT22;969;49.892;10.896;2023-06-10T15:36:50;25.60;52.80
1936;DHT22;969;49.892;10.896;2023-06-10T15:39:16;25.60;52.80
1936;DHT22;969;49.892;10.896;2023-06-10T15:41:41;25.60;52.80
1936;DHT22;969;49.892;10.896;2023-06-10T15:44:07;25.60;52.80
1936;DHT22;969;49.892;10.896;2023-06-10T15:46:32;25.60;52.70
1936;DHT22;969;49.892;10.896;2023-06-10T15:49:00;25.60;52.70
1936;DHT22;969;49.892;10.896;2023-06-10T15:51:25;25.60;52.80
1936;DHT22;969;49.892;10.896;2023-06-10T15:53:51;25.60;52.70
1936;DHT22;969;49.892;10.896;2023-06-10T15:56:17;25.60;52.70
1936;DHT22;969;49.892;10.896;2023-06-10T15:58:43;25.60;52.70
1936;DHT22;969;49.892;10.896;2023-06-10T16:01:08;25.60;52.70
1936;DHT22;969;49.892;10.896;2023-06-10T16:03:35;25.60;52.70
1936;DHT22;969;49.892;10.896;2023-06-10T16:06:01;25.60;52.70
1936;DHT22;969;49.892;10.896;2023-06-10T16:08:27;25.60;52.70
1936;DHT22;969;49.892;10.896;2023-06-10T16:10:52;25.60;52.70
1936;DHT22;969;49.892;10.896;2023-06-10T16:13:18;25.60;52.70